createdAt,value
2023-04-18T00:00:27.842Z,10.90
2023-04-18T00:03:16.033Z,10.80
2023-04-18T00:05:47.438Z,10.70
2023-04-18T00:08:16.466Z,10.80
2023-04-18T00:10:44.784Z,11.20
2023-04-18T00:13:13.054Z,11.30
2023-04-18T00:15:42.981Z,10.60
2023-04-18T00:18:11.423Z,11.10
2023-04-18T00:20:42.276Z,11.20
2023-04-18T00:23:14.258Z,11.50
2023-04-18T00:25:42.599Z,10.90
2023-04-18T00:28:11.054Z,11.30
2023-04-18T00:30:40.519Z,11.20
2023-04-18T00:33:09.138Z,11.20
2023-04-18T00:35:38.804Z,12.10
2023-04-18T00:38:07.022Z,12.40
2023-04-18T00:40:35.709Z,12.30
2023-04-18T00:43:04.113Z,12.00
2023-04-18T00:45:32.460Z,11.60
2023-04-18T00:48:00.846Z,11.80
2023-04-18T00:50:29.293Z,10.60
2023-04-18T00:52:58.503Z,11.00
2023-04-18T00:55:26.881Z,11.70
2023-04-18T00:57:55.296Z,12.20
2023-04-18T01:00:23.449Z,11.90
2023-04-18T01:02:54.056Z,11.50
2023-04-18T01:05:23.734Z,12.60
2023-04-18T01:07:52.306Z,11.40
2023-04-18T01:10:20.709Z,11.90
2023-04-18T01:12:49.019Z,11.90
2023-04-18T01:15:17.226Z,11.20
2023-04-18T01:17:45.696Z,11.30
2023-04-18T01:20:13.994Z,10.70
2023-04-18T01:22:42.298Z,11.40
2023-04-18T01:25:10.789Z,11.20
2023-04-18T01:27:39.151Z,11.10
2023-04-18T01:30:08.351Z,11.30
2023-04-18T01:32:36.587Z,11.50
2023-04-18T01:35:05.448Z,10.90
2023-04-18T01:37:33.693Z,10.40
2023-04-18T01:40:01.870Z,11.20
2023-04-18T01:42:30.370Z,10.00
2023-04-18T01:44:58.545Z,11.60
2023-04-18T01:47:26.798Z,11.10
2023-04-18T01:49:55.715Z,11.00
2023-04-18T01:52:23.938Z,10.30
2023-04-18T01:54:52.199Z,10.50
2023-04-18T01:57:20.552Z,11.50
2023-04-18T01:59:48.724Z,11.30
2023-04-18T02:02:17.067Z,10.40
2023-04-18T02:04:45.411Z,11.10
2023-04-18T02:07:13.714Z,11.40
2023-04-18T02:09:41.991Z,10.90
2023-04-18T02:12:10.366Z,11.20
2023-04-18T02:14:38.651Z,10.20
2023-04-18T02:17:06.824Z,11.00
2023-04-18T02:19:35.139Z,11.10
2023-04-18T02:22:03.337Z,10.10
2023-04-18T02:24:31.513Z,11.10
2023-04-18T02:26:59.970Z,10.50
2023-04-18T02:29:28.234Z,10.40
2023-04-18T02:31:57.023Z,10.20
2023-04-18T02:34:25.316Z,10.40
2023-04-18T02:36:53.504Z,11.00
2023-04-18T02:39:21.819Z,11.40
2023-04-18T02:41:50.119Z,11.10
2023-04-18T02:44:18.279Z,10.90
2023-04-18T02:46:46.527Z,10.10
2023-04-18T02:49:14.789Z,9.80
2023-04-18T02:51:42.988Z,10.60
2023-04-18T02:54:11.450Z,10.40
2023-04-18T02:56:40.300Z,9.70
2023-04-18T02:59:08.723Z,10.00
2023-04-18T03:01:37.171Z,10.20
2023-04-18T03:04:05.768Z,10.90
2023-04-18T03:06:34.000Z,9.60
2023-04-18T03:09:03.456Z,10.30
2023-04-18T03:11:31.804Z,10.00
2023-04-18T03:13:59.995Z,9.50
2023-04-18T03:16:28.239Z,9.70
2023-04-18T03:18:56.613Z,10.00
2023-04-18T03:21:24.970Z,9.90
2023-04-18T03:23:53.437Z,9.90
2023-04-18T03:26:21.893Z,9.40
2023-04-18T03:28:50.215Z,10.30
2023-04-18T03:31:18.558Z,9.60
2023-04-18T03:33:47.199Z,9.70
2023-04-18T03:36:18.256Z,9.80
2023-04-18T03:38:46.609Z,9.90
2023-04-18T03:41:14.849Z,9.80
2023-04-18T03:43:43.152Z,9.80
2023-04-18T03:46:11.546Z,9.70
2023-04-18T03:48:39.795Z,9.50
2023-04-18T03:51:08.299Z,8.80
2023-04-18T03:53:36.729Z,9.00
2023-04-18T03:56:05.090Z,10.30
2023-04-18T03:58:33.388Z,9.60
2023-04-18T04:01:01.678Z,9.80
2023-04-18T04:03:30.205Z,10.40
2023-04-18T04:05:58.567Z,10.10
2023-04-18T04:08:28.249Z,9.20
2023-04-18T04:10:56.581Z,10.60
2023-04-18T04:13:24.940Z,9.90
2023-04-18T04:15:53.371Z,9.20
2023-04-18T04:18:25.483Z,9.20
2023-04-18T04:20:53.634Z,9.60
2023-04-18T04:23:22.839Z,9.70
2023-04-18T04:25:53.199Z,10.60
2023-04-18T04:28:22.897Z,9.30
2023-04-18T04:30:51.146Z,9.90
2023-04-18T04:33:20.230Z,8.30
2023-04-18T04:35:48.754Z,8.80
2023-04-18T04:38:17.648Z,8.60
2023-04-18T04:40:46.547Z,9.60
2023-04-18T04:43:16.591Z,9.00
2023-04-18T04:45:45.394Z,9.60
2023-04-18T04:48:13.670Z,10.20
2023-04-18T04:50:42.524Z,10.40
2023-04-18T04:53:11.915Z,10.00
2023-04-18T04:55:40.206Z,9.50
2023-04-18T04:58:08.495Z,10.10
2023-04-18T05:00:36.653Z,9.70
2023-04-18T05:03:05.101Z,10.70
2023-04-18T05:05:33.482Z,10.30
2023-04-18T05:08:01.736Z,10.80
2023-04-18T05:10:30.652Z,10.00
2023-04-18T05:12:58.935Z,8.90
2023-04-18T05:15:27.139Z,9.70
2023-04-18T05:17:55.361Z,9.90
2023-04-18T05:20:24.358Z,10.00
2023-04-18T05:22:52.690Z,10.20
2023-04-18T05:25:21.443Z,10.50
2023-04-18T05:27:51.153Z,10.00
2023-04-18T05:30:19.338Z,9.80
2023-04-18T05:32:47.709Z,11.00
2023-04-18T05:35:16.241Z,8.50
2023-04-18T05:37:44.642Z,9.60
2023-04-18T05:40:13.454Z,9.60
2023-04-18T05:42:41.714Z,10.40
2023-04-18T05:45:10.319Z,10.60
2023-04-18T05:47:38.592Z,11.10
2023-04-18T05:50:07.849Z,10.90
2023-04-18T05:52:37.364Z,11.00
2023-04-18T05:55:07.064Z,9.10
2023-04-18T05:57:35.370Z,10.80
2023-04-18T06:00:07.011Z,9.60
2023-04-18T06:02:35.405Z,10.20
2023-04-18T06:05:04.009Z,9.80
2023-04-18T06:07:32.608Z,10.20
2023-04-18T06:10:00.917Z,9.80
2023-04-18T06:12:29.270Z,11.30
2023-04-18T06:14:57.482Z,10.70
2023-04-18T06:17:25.821Z,10.60
2023-04-18T06:19:54.019Z,9.90
2023-04-18T06:22:22.683Z,10.20
2023-04-18T06:24:51.128Z,10.20
2023-04-18T06:27:30.589Z,9.60
2023-04-18T06:29:59.703Z,10.10
2023-04-18T06:32:28.222Z,11.90
2023-04-18T06:34:56.560Z,11.00
2023-04-18T06:37:25.072Z,10.80
2023-04-18T06:39:53.347Z,10.60
2023-04-18T06:42:22.582Z,10.10
2023-04-18T06:44:51.197Z,10.70
2023-04-18T06:47:19.570Z,10.40
2023-04-18T06:49:48.376Z,10.20
2023-04-18T06:52:16.627Z,10.80
2023-04-18T06:54:44.908Z,10.40
2023-04-18T06:57:13.172Z,10.20
2023-04-18T06:59:43.942Z,11.10
2023-04-18T07:02:12.210Z,10.00
2023-04-18T07:04:40.690Z,11.80
2023-04-18T07:07:09.193Z,10.00
2023-04-18T07:09:37.388Z,12.10
2023-04-18T07:12:05.961Z,10.00
2023-04-18T07:14:34.462Z,9.30
2023-04-18T07:17:02.798Z,10.30
2023-04-18T07:19:31.061Z,9.80
2023-04-18T07:21:59.423Z,9.90
2023-04-18T07:24:27.646Z,10.70
2023-04-18T07:26:56.452Z,8.70
2023-04-18T07:29:24.769Z,9.40
2023-04-18T07:31:52.930Z,10.40
2023-04-18T07:34:22.325Z,9.10
2023-04-18T07:36:50.738Z,8.60
2023-04-18T07:39:18.940Z,9.50
2023-04-18T07:41:47.092Z,10.20
2023-04-18T07:44:15.557Z,9.80
2023-04-18T07:46:44.098Z,7.40
2023-04-18T07:49:12.484Z,8.90
2023-04-18T07:51:40.936Z,9.40
2023-04-18T07:54:11.255Z,8.70
2023-04-18T07:56:39.469Z,9.40
2023-04-18T07:59:07.707Z,9.90
2023-04-18T08:01:35.995Z,8.00
2023-04-18T08:04:04.527Z,9.20
2023-04-18T08:06:34.746Z,8.40
2023-04-18T08:09:05.810Z,8.50
2023-04-18T08:11:34.230Z,9.00
2023-04-18T08:14:02.573Z,9.10
2023-04-18T08:16:30.914Z,8.20
2023-04-18T08:18:59.272Z,9.00
2023-04-18T08:21:27.494Z,7.90
2023-04-18T08:23:55.792Z,7.60
2023-04-18T08:26:24.170Z,7.60
2023-04-18T08:28:52.445Z,7.90
2023-04-18T08:31:20.899Z,6.40
2023-04-18T08:33:49.284Z,6.80
2023-04-18T08:36:17.711Z,6.80
2023-04-18T08:38:46.852Z,6.70
2023-04-18T08:41:20.974Z,7.00
2023-04-18T08:43:49.318Z,6.50
2023-04-18T08:46:17.779Z,5.50
2023-04-18T08:48:49.671Z,5.70
2023-04-18T08:51:17.982Z,5.90
2023-04-18T08:53:48.486Z,5.20
2023-04-18T08:56:17.047Z,5.30
2023-04-18T08:58:45.348Z,5.20
2023-04-18T09:01:13.821Z,5.20
2023-04-18T09:03:43.369Z,5.30
2023-04-18T09:06:19.354Z,4.80
2023-04-18T09:08:59.292Z,5.10
2023-04-18T09:11:30.290Z,4.90
2023-04-18T09:14:02.623Z,5.50
2023-04-18T09:16:47.053Z,5.20
2023-04-18T09:19:19.238Z,4.00
2023-04-18T09:21:58.079Z,4.50
2023-04-18T09:24:29.421Z,4.70
2023-04-18T09:26:59.871Z,4.50
2023-04-18T09:29:46.433Z,4.40
2023-04-18T09:32:27.318Z,3.90
2023-04-18T09:34:58.930Z,3.80
2023-04-18T09:37:28.560Z,4.30
2023-04-18T09:42:28.658Z,4.00
2023-04-18T09:45:06.090Z,4.40
2023-04-18T09:47:37.259Z,4.30
2023-04-18T09:50:08.632Z,3.90
2023-04-18T09:52:42.851Z,4.40
2023-04-18T09:55:17.411Z,3.80
2023-04-18T09:57:49.587Z,4.10
2023-04-18T10:00:27.322Z,4.30
2023-04-18T10:03:09.959Z,4.70
2023-04-18T10:05:41.319Z,4.40
2023-04-18T10:08:10.647Z,5.10
2023-04-18T10:10:39.405Z,4.50
2023-04-18T10:13:11.225Z,4.20
2023-04-18T10:15:40.368Z,4.40
2023-04-18T10:18:14.559Z,4.40
2023-04-18T10:20:47.632Z,4.20
2023-04-18T10:23:49.070Z,4.40
2023-04-18T10:26:17.726Z,4.40
2023-04-18T10:28:59.707Z,4.40
2023-04-18T10:31:29.695Z,4.00
2023-04-18T10:36:33.640Z,4.10
2023-04-18T10:39:21.391Z,4.20
2023-04-18T10:41:51.597Z,3.60
2023-04-18T10:44:25.569Z,4.40
2023-04-18T10:46:54.701Z,4.00
2023-04-18T10:49:27.838Z,3.90
2023-04-18T10:52:00.320Z,4.00
2023-04-18T10:54:39.201Z,3.80
2023-04-18T10:57:10.995Z,3.70
2023-04-18T10:59:43.129Z,4.50
2023-04-18T11:02:32.641Z,4.10
2023-04-18T11:05:05.587Z,5.10
2023-04-18T11:07:46.097Z,5.40
2023-04-18T11:10:27.224Z,5.40
2023-04-18T11:12:56.815Z,5.90
2023-04-18T11:15:27.986Z,5.40
2023-04-18T11:18:02.822Z,5.50
2023-04-18T11:20:46.747Z,4.70
2023-04-18T11:23:21.537Z,5.40
2023-04-18T11:25:53.884Z,5.30
2023-04-18T11:28:24.904Z,5.10
2023-04-18T11:30:58.788Z,5.00
2023-04-18T11:33:29.454Z,4.90
2023-04-18T11:35:59.738Z,5.50
2023-04-18T11:38:30.918Z,5.40
2023-04-18T11:41:00.483Z,5.60
2023-04-18T11:43:28.895Z,5.40
2023-04-18T11:46:00.049Z,6.50
2023-04-18T11:48:38.577Z,6.60
2023-04-18T11:51:07.947Z,6.20
2023-04-18T11:53:38.105Z,6.70
2023-04-18T11:56:06.855Z,6.00
2023-04-18T11:58:36.709Z,5.80
2023-04-18T12:01:22.530Z,6.10
2023-04-18T12:04:04.751Z,6.50
2023-04-18T12:06:50.413Z,6.50
2023-04-18T12:09:19.742Z,6.80
2023-04-18T12:12:02.877Z,6.30
2023-04-18T12:14:31.318Z,7.00
2023-04-18T12:16:59.576Z,7.20
2023-04-18T12:19:29.529Z,6.90
2023-04-18T12:22:06.833Z,6.80
2023-04-18T12:24:36.265Z,6.90
2023-04-18T12:27:05.272Z,7.30
2023-04-18T12:29:33.496Z,7.00
2023-04-18T12:32:01.849Z,7.80
2023-04-18T12:34:30.276Z,6.80
2023-04-18T12:36:58.529Z,7.30
2023-04-18T12:39:26.892Z,7.30
2023-04-18T12:41:55.063Z,7.00
2023-04-18T12:44:24.806Z,6.40
2023-04-18T12:49:21.320Z,6.80
2023-04-18T12:51:49.610Z,6.70
2023-04-18T12:54:17.862Z,6.90
2023-04-18T12:56:46.601Z,7.10
2023-04-18T12:59:14.999Z,6.70
2023-04-18T13:01:43.517Z,6.70
2023-04-18T13:04:13.171Z,6.70
2023-04-18T13:06:59.081Z,6.60
2023-04-18T13:09:27.430Z,6.80
2023-04-18T13:11:55.970Z,6.30
2023-04-18T13:14:24.673Z,6.50
2023-04-18T13:16:53.036Z,5.80
2023-04-18T13:19:21.238Z,5.60
2023-04-18T13:21:49.748Z,6.30
2023-04-18T13:24:18.047Z,5.80
2023-04-18T13:26:46.362Z,6.00
2023-04-18T13:29:14.937Z,7.10
2023-04-18T13:31:43.400Z,6.10
2023-04-18T13:34:11.964Z,6.20
2023-04-18T13:36:40.278Z,5.90
2023-04-18T13:39:09.111Z,5.80
2023-04-18T13:41:43.592Z,5.80
2023-04-18T13:44:31.041Z,6.00
2023-04-18T13:47:01.287Z,5.60
2023-04-18T13:49:29.780Z,5.50
2023-04-18T13:51:58.320Z,5.40
2023-04-18T13:54:31.144Z,4.80
2023-04-18T13:57:03.228Z,5.50
2023-04-18T13:59:32.612Z,5.10
2023-04-18T14:02:01.112Z,5.50
2023-04-18T14:04:29.569Z,5.00
2023-04-18T14:06:58.058Z,4.70
2023-04-18T14:09:27.056Z,4.80
2023-04-18T14:12:00.309Z,5.50
2023-04-18T14:14:31.006Z,4.70
2023-04-18T14:16:59.568Z,5.10
2023-04-18T14:19:27.977Z,5.60
2023-04-18T14:21:56.297Z,5.60
2023-04-18T14:24:24.643Z,5.10
2023-04-18T14:26:57.942Z,5.30
2023-04-18T14:29:26.515Z,4.70
2023-04-18T14:31:56.214Z,5.30
2023-04-18T14:34:41.437Z,5.20
2023-04-18T14:37:41.284Z,5.70
2023-04-18T15:27:28.682Z,5.60
2023-04-18T15:29:57.318Z,5.90
2023-04-18T15:32:33.311Z,5.90
2023-04-18T15:35:12.356Z,6.30
2023-04-18T15:37:51.527Z,5.40
2023-04-18T15:42:59.761Z,5.40
2023-04-18T15:45:32.337Z,5.60
2023-04-18T15:48:00.815Z,5.70
2023-04-18T15:50:30.288Z,5.30
2023-04-18T15:52:59.726Z,5.30
2023-04-18T15:55:28.128Z,6.00
2023-04-18T15:57:56.615Z,5.10
2023-04-18T16:00:24.882Z,5.00
2023-04-18T16:02:53.410Z,5.00
2023-04-18T16:05:22.320Z,6.40
2023-04-18T16:07:52.458Z,6.50
2023-04-18T16:10:20.995Z,5.70
2023-04-18T16:12:51.695Z,6.20
2023-04-18T16:15:20.415Z,5.70
2023-04-18T16:17:49.606Z,6.10
2023-04-18T16:20:18.209Z,5.30
2023-04-18T16:22:47.293Z,5.70
2023-04-18T16:25:15.754Z,5.90
2023-04-18T16:27:44.776Z,6.70
2023-04-18T16:30:13.553Z,5.70
2023-04-18T16:32:42.173Z,6.40
2023-04-18T16:35:11.387Z,6.00
2023-04-18T16:37:40.955Z,5.60
2023-04-18T16:40:10.398Z,5.80
2023-04-18T16:42:38.918Z,5.70
2023-04-18T16:45:07.853Z,5.30
2023-04-18T16:47:36.577Z,5.70
2023-04-18T16:50:06.070Z,5.60
2023-04-18T16:52:34.834Z,5.60
2023-04-18T16:55:03.460Z,5.30
2023-04-18T16:57:32.399Z,5.50
2023-04-18T17:02:31.676Z,4.60
2023-04-18T17:05:01.508Z,4.80
2023-04-18T17:10:00.145Z,5.30
2023-04-18T17:12:29.053Z,5.60
2023-04-18T17:14:57.410Z,5.50
2023-04-18T17:17:27.189Z,6.00
2023-04-18T17:19:56.565Z,5.60
2023-04-18T17:22:26.546Z,5.70
2023-04-18T17:24:54.940Z,6.00
2023-04-18T17:27:23.373Z,6.30
2023-04-18T17:29:51.781Z,5.90
2023-04-18T17:32:20.884Z,6.30
2023-04-18T17:34:49.574Z,6.20
2023-04-18T17:37:23.008Z,6.00
2023-04-18T17:39:51.438Z,6.20
2023-04-18T17:42:21.334Z,6.30
2023-04-18T17:47:19.555Z,6.30
2023-04-18T17:49:48.867Z,6.80
2023-04-18T17:52:19.904Z,6.20
2023-04-18T17:54:48.223Z,5.90
2023-04-18T17:57:16.747Z,6.40
2023-04-18T17:59:45.142Z,6.40
2023-04-18T18:02:13.584Z,6.20
2023-04-18T18:04:42.166Z,6.20
2023-04-18T18:07:13.076Z,6.00
2023-04-18T18:09:45.710Z,6.60
2023-04-18T18:12:14.444Z,6.70
2023-04-18T18:14:45.709Z,5.70
2023-04-18T18:17:14.094Z,6.10
2023-04-18T18:19:42.434Z,5.80
2023-04-18T18:22:11.325Z,6.20
2023-04-18T18:24:39.854Z,6.20
2023-04-18T18:27:08.363Z,6.60
2023-04-18T18:29:36.807Z,5.90
2023-04-18T18:32:05.545Z,6.40
2023-04-18T18:34:33.937Z,5.80
2023-04-18T18:37:04.691Z,6.30
2023-04-18T18:39:32.960Z,6.10
2023-04-18T18:42:01.841Z,5.40
2023-04-18T18:44:30.673Z,6.40
2023-04-18T18:46:59.898Z,5.20
2023-04-18T18:49:28.353Z,7.00
2023-04-18T18:51:57.242Z,6.00
2023-04-18T18:54:26.197Z,6.20
2023-04-18T18:56:54.546Z,5.90
2023-04-18T18:59:23.996Z,5.90
2023-04-18T19:01:52.657Z,5.20
2023-04-18T19:04:21.955Z,5.50
2023-04-18T19:06:50.405Z,6.10
2023-04-18T19:09:19.005Z,5.70
2023-04-18T19:11:47.294Z,6.00
2023-04-18T19:14:15.817Z,5.60
2023-04-18T19:16:45.230Z,5.30
2023-04-18T19:19:15.102Z,5.20
2023-04-18T19:21:46.219Z,5.10
2023-04-18T19:24:15.833Z,5.10
2023-04-18T19:26:44.416Z,4.90
2023-04-18T19:29:15.848Z,5.40
2023-04-18T19:31:44.434Z,4.70
2023-04-18T19:34:15.320Z,5.10
2023-04-18T19:36:44.437Z,4.90
2023-04-18T19:39:12.946Z,5.00
2023-04-18T19:41:46.016Z,4.40
2023-04-18T19:44:14.761Z,4.80
2023-04-18T19:49:46.438Z,4.50
2023-04-18T19:54:59.160Z,4.00
2023-04-18T19:57:30.179Z,3.80
2023-04-18T20:00:02.693Z,3.70
2023-04-18T20:02:38.494Z,3.90
2023-04-18T20:05:10.957Z,3.70
2023-04-18T20:07:39.651Z,3.40
2023-04-18T20:10:09.330Z,3.60
2023-04-18T20:12:37.701Z,3.30
2023-04-18T20:15:06.536Z,3.40
2023-04-18T20:17:34.995Z,3.50
2023-04-18T20:20:04.670Z,3.40
2023-04-18T20:22:33.008Z,4.40
2023-04-18T20:25:01.779Z,3.60
2023-04-18T20:27:30.182Z,3.60
2023-04-18T20:29:58.507Z,4.00
2023-04-18T20:32:26.926Z,3.60
2023-04-18T20:34:55.273Z,3.50
2023-04-18T20:37:24.685Z,4.20
2023-04-18T20:39:53.003Z,5.30
2023-04-18T20:42:21.400Z,3.90
2023-04-18T20:44:49.727Z,3.40
2023-04-18T20:47:18.227Z,4.50
2023-04-18T20:49:46.612Z,3.30
2023-04-18T20:52:15.085Z,3.60
2023-04-18T20:54:43.346Z,4.10
2023-04-18T20:57:11.777Z,3.50
2023-04-18T20:59:40.031Z,3.40
2023-04-18T21:02:08.603Z,3.80
2023-04-18T21:04:37.327Z,3.80
2023-04-18T21:07:07.684Z,3.90
2023-04-18T21:09:37.186Z,3.30
2023-04-18T21:12:06.085Z,3.50
2023-04-18T21:14:34.395Z,3.50
2023-04-18T21:17:03.004Z,3.70
2023-04-18T21:19:31.329Z,3.50
2023-04-18T21:21:59.612Z,3.70
2023-04-18T21:24:27.944Z,4.00
2023-04-18T21:26:56.289Z,4.10
2023-04-18T21:29:24.671Z,4.00
2023-04-18T21:31:54.034Z,3.70
2023-04-18T21:34:22.333Z,3.80
2023-04-18T21:36:50.601Z,4.10
2023-04-18T21:39:20.941Z,4.10
2023-04-18T21:42:13.700Z,4.20
2023-04-18T21:45:13.179Z,3.80
2023-04-18T21:47:47.136Z,3.80
2023-04-18T21:50:20.266Z,4.00
2023-04-18T21:54:24.362Z,3.90
2023-04-18T21:57:21.943Z,4.00
2023-04-18T22:00:33.891Z,4.00
2023-04-18T22:03:23.366Z,3.40
2023-04-18T22:06:33.513Z,3.50
2023-04-18T22:09:06.570Z,3.10
2023-04-18T22:14:52.454Z,3.60
2023-04-18T22:17:31.909Z,3.60
2023-04-18T22:20:05.028Z,3.60
2023-04-18T22:22:33.838Z,3.80
2023-04-18T22:29:29.629Z,3.40
2023-04-18T22:32:10.885Z,3.20
2023-04-18T22:35:09.606Z,3.70
2023-04-18T22:37:56.450Z,3.50
2023-04-18T22:40:54.160Z,3.50
2023-04-18T22:44:29.822Z,3.60
2023-04-18T22:46:59.301Z,4.00
2023-04-18T22:49:30.749Z,3.70
2023-04-18T22:52:18.477Z,3.60
2023-04-18T22:55:20.833Z,3.60
2023-04-18T22:57:50.044Z,3.60
2023-04-18T23:00:19.067Z,3.30
2023-04-18T23:03:05.502Z,3.40
2023-04-18T23:05:48.065Z,3.40
2023-04-18T23:08:34.690Z,3.20
2023-04-18T23:11:05.795Z,4.10
2023-04-18T23:13:57.428Z,3.90
2023-04-18T23:16:49.708Z,3.50
2023-04-18T23:19:18.329Z,4.20
2023-04-18T23:23:51.371Z,3.70
2023-04-18T23:26:14.928Z,3.20
2023-04-18T23:28:43.356Z,3.60
2023-04-18T23:31:11.945Z,3.60
2023-04-18T23:33:45.056Z,2.80
2023-04-18T23:36:23.459Z,3.10
